sensor_id;sensor_type;location;lat;lon;timestamp;P1;durP1;ratioP1;P2;durP2;ratioP2
66521;SDS011;53349;53.538;8.584;2023-04-25T00:01:18;14.88;;;3.15;;
66521;SDS011;53349;53.538;8.584;2023-04-25T00:03:44;16.27;;;2.60;;
66521;SDS011;53349;53.538;8.584;2023-04-25T00:06:09;12.20;;;2.67;;
66521;SDS011;53349;53.538;8.584;2023-04-25T00:08:35;15.20;;;2.77;;
66521;SDS011;53349;53.538;8.584;2023-04-25T00:11:00;15.30;;;2.17;;
66521;SDS011;53349;53.538;8.584;2023-04-25T00:13:26;12.80;;;2.47;;
66521;SDS011;53349;53.538;8.584;2023-04-25T00:15:52;13.20;;;3.67;;
66521;SDS011;53349;53.538;8.584;2023-04-25T00:18:18;14.80;;;2.33;;
66521;SDS011;53349;53.538;8.584;2023-04-25T00:20:44;9.75;;;2.47;;
66521;SDS011;53349;53.538;8.584;2023-04-25T00:23:10;16.87;;;2.80;;
66521;SDS011;53349;53.538;8.584;2023-04-25T00:25:36;15.05;;;2.10;;
66521;SDS011;53349;53.538;8.584;2023-04-25T00:28:01;15.60;;;3.03;;
66521;SDS011;53349;53.538;8.584;2023-04-25T00:30:26;18.37;;;2.67;;
66521;SDS011;53349;53.538;8.584;2023-04-25T00:32:52;15.87;;;2.63;;
66521;SDS011;53349;53.538;8.584;2023-04-25T00:35:17;14.13;;;2.58;;
66521;SDS011;53349;53.538;8.584;2023-04-25T00:37:46;17.98;;;2.60;;
66521;SDS011;53349;53.538;8.584;2023-04-25T00:40:13;10.57;;;1.95;;
66521;SDS011;53349;53.538;8.584;2023-04-25T00:42:38;9.00;;;2.50;;
66521;SDS011;53349;53.538;8.584;2023-04-25T00:45:05;11.00;;;2.10;;
66521;SDS011;53349;53.538;8.584;2023-04-25T00:47:31;14.95;;;2.10;;
66521;SDS011;53349;53.538;8.584;2023-04-25T00:49:58;16.05;;;2.42;;
66521;SDS011;53349;53.538;8.584;2023-04-25T00:52:24;10.50;;;2.00;;
66521;SDS011;53349;53.538;8.584;2023-04-25T00:54:51;13.23;;;2.37;;
66521;SDS011;53349;53.538;8.584;2023-04-25T00:57:16;10.57;;;2.22;;
66521;SDS011;53349;53.538;8.584;2023-04-25T00:59:42;10.17;;;2.30;;
66521;SDS011;53349;53.538;8.584;2023-04-25T01:02:12;13.57;;;2.15;;
66521;SDS011;53349;53.538;8.584;2023-04-25T01:04:39;11.55;;;2.15;;
66521;SDS011;53349;53.538;8.584;2023-04-25T01:07:04;11.77;;;2.10;;
66521;SDS011;53349;53.538;8.584;2023-04-25T01:09:31;15.05;;;2.10;;
66521;SDS011;53349;53.538;8.584;2023-04-25T01:11:57;12.10;;;2.23;;
66521;SDS011;53349;53.538;8.584;2023-04-25T01:14:22;12.90;;;2.22;;
66521;SDS011;53349;53.538;8.584;2023-04-25T01:16:48;16.95;;;2.50;;
66521;SDS011;53349;53.538;8.584;2023-04-25T01:19:15;13.87;;;2.40;;
66521;SDS011;53349;53.538;8.584;2023-04-25T01:21:41;11.90;;;1.88;;
66521;SDS011;53349;53.538;8.584;2023-04-25T01:24:07;13.70;;;2.90;;
66521;SDS011;53349;53.538;8.584;2023-04-25T01:26:33;14.45;;;2.20;;
66521;SDS011;53349;53.538;8.584;2023-04-25T01:28:59;14.80;;;2.40;;
66521;SDS011;53349;53.538;8.584;2023-04-25T01:31:32;17.83;;;2.63;;
66521;SDS011;53349;53.538;8.584;2023-04-25T01:33:58;12.85;;;2.03;;
66521;SDS011;53349;53.538;8.584;2023-04-25T01:36:23;14.73;;;2.40;;
66521;SDS011;53349;53.538;8.584;2023-04-25T01:38:49;10.65;;;1.83;;
66521;SDS011;53349;53.538;8.584;2023-04-25T01:41:15;13.52;;;1.88;;
66521;SDS011;53349;53.538;8.584;2023-04-25T01:43:41;9.52;;;2.38;;
66521;SDS011;53349;53.538;8.584;2023-04-25T01:46:06;9.70;;;2.27;;
66521;SDS011;53349;53.538;8.584;2023-04-25T01:48:31;8.47;;;1.90;;
66521;SDS011;53349;53.538;8.584;2023-04-25T01:50:57;15.43;;;2.13;;
66521;SDS011;53349;53.538;8.584;2023-04-25T01:53:24;10.60;;;1.75;;
66521;SDS011;53349;53.538;8.584;2023-04-25T01:55:51;9.88;;;2.00;;
66521;SDS011;53349;53.538;8.584;2023-04-25T01:58:16;13.90;;;1.80;;
66521;SDS011;53349;53.538;8.584;2023-04-25T02:00:41;12.88;;;2.33;;
66521;SDS011;53349;53.538;8.584;2023-04-25T02:03:08;15.88;;;2.35;;
66521;SDS011;53349;53.538;8.584;2023-04-25T02:05:37;11.25;;;1.77;;
66521;SDS011;53349;53.538;8.584;2023-04-25T02:08:04;11.93;;;2.47;;
66521;SDS011;53349;53.538;8.584;2023-04-25T02:10:31;17.57;;;2.20;;
66521;SDS011;53349;53.538;8.584;2023-04-25T02:12:57;8.38;;;1.52;;
66521;SDS011;53349;53.538;8.584;2023-04-25T02:15:23;16.38;;;2.35;;
66521;SDS011;53349;53.538;8.584;2023-04-25T02:17:48;13.30;;;1.80;;
66521;SDS011;53349;53.538;8.584;2023-04-25T02:20:14;10.20;;;1.70;;
66521;SDS011;53349;53.538;8.584;2023-04-25T02:22:39;9.73;;;1.70;;
66521;SDS011;53349;53.538;8.584;2023-04-25T02:25:05;8.85;;;1.52;;
66521;SDS011;53349;53.538;8.584;2023-04-25T02:27:30;8.27;;;1.43;;
66521;SDS011;53349;53.538;8.584;2023-04-25T02:29:56;9.32;;;1.23;;
66521;SDS011;53349;53.538;8.584;2023-04-25T02:32:21;8.37;;;1.47;;
66521;SDS011;53349;53.538;8.584;2023-04-25T02:34:47;10.93;;;1.80;;
66521;SDS011;53349;53.538;8.584;2023-04-25T02:37:12;10.67;;;1.80;;
66521;SDS011;53349;53.538;8.584;2023-04-25T02:39:38;9.27;;;1.75;;
66521;SDS011;53349;53.538;8.584;2023-04-25T02:42:03;8.30;;;1.83;;
66521;SDS011;53349;53.538;8.584;2023-04-25T02:44:28;12.37;;;1.70;;
66521;SDS011;53349;53.538;8.584;2023-04-25T02:46:54;10.87;;;1.70;;
66521;SDS011;53349;53.538;8.584;2023-04-25T02:49:19;12.20;;;1.77;;
66521;SDS011;53349;53.538;8.584;2023-04-25T02:51:44;10.30;;;1.80;;
66521;SDS011;53349;53.538;8.584;2023-04-25T02:54:10;11.43;;;1.70;;
66521;SDS011;53349;53.538;8.584;2023-04-25T02:56:35;13.03;;;1.80;;
66521;SDS011;53349;53.538;8.584;2023-04-25T02:59:00;9.77;;;1.40;;
66521;SDS011;53349;53.538;8.584;2023-04-25T03:01:26;8.23;;;1.53;;
66521;SDS011;53349;53.538;8.584;2023-04-25T03:03:51;8.83;;;1.67;;
66521;SDS011;53349;53.538;8.584;2023-04-25T03:06:16;13.17;;;1.97;;
66521;SDS011;53349;53.538;8.584;2023-04-25T03:08:42;7.40;;;1.60;;
66521;SDS011;53349;53.538;8.584;2023-04-25T03:11:08;12.45;;;2.05;;
66521;SDS011;53349;53.538;8.584;2023-04-25T03:13:33;7.90;;;1.77;;
66521;SDS011;53349;53.538;8.584;2023-04-25T03:15:59;17.07;;;2.23;;
66521;SDS011;53349;53.538;8.584;2023-04-25T03:18:24;11.68;;;1.92;;
66521;SDS011;53349;53.538;8.584;2023-04-25T03:20:50;9.93;;;2.15;;
66521;SDS011;53349;53.538;8.584;2023-04-25T03:23:16;13.60;;;1.70;;
66521;SDS011;53349;53.538;8.584;2023-04-25T03:25:41;12.52;;;1.75;;
66521;SDS011;53349;53.538;8.584;2023-04-25T03:28:07;11.50;;;1.70;;
66521;SDS011;53349;53.538;8.584;2023-04-25T03:30:32;13.87;;;1.70;;
66521;SDS011;53349;53.538;8.584;2023-04-25T03:33:00;12.80;;;2.05;;
66521;SDS011;53349;53.538;8.584;2023-04-25T03:35:26;14.55;;;2.58;;
66521;SDS011;53349;53.538;8.584;2023-04-25T03:37:58;6.00;;;1.38;;
66521;SDS011;53349;53.538;8.584;2023-04-25T03:40:23;12.52;;;1.63;;
66521;SDS011;53349;53.538;8.584;2023-04-25T03:42:50;17.58;;;2.42;;
66521;SDS011;53349;53.538;8.584;2023-04-25T03:45:17;7.97;;;1.77;;
66521;SDS011;53349;53.538;8.584;2023-04-25T03:47:42;9.00;;;1.45;;
66521;SDS011;53349;53.538;8.584;2023-04-25T03:50:09;9.47;;;1.97;;
66521;SDS011;53349;53.538;8.584;2023-04-25T03:52:35;8.93;;;2.00;;
66521;SDS011;53349;53.538;8.584;2023-04-25T03:55:00;11.20;;;2.03;;
66521;SDS011;53349;53.538;8.584;2023-04-25T03:57:27;11.63;;;1.50;;
66521;SDS011;53349;53.538;8.584;2023-04-25T03:59:53;13.07;;;1.63;;
66521;SDS011;53349;53.538;8.584;2023-04-25T04:02:20;9.23;;;1.70;;
66521;SDS011;53349;53.538;8.584;2023-04-25T04:04:46;11.95;;;1.65;;
66521;SDS011;53349;53.538;8.584;2023-04-25T04:07:11;9.27;;;1.27;;
66521;SDS011;53349;53.538;8.584;2023-04-25T04:09:37;8.43;;;2.20;;
66521;SDS011;53349;53.538;8.584;2023-04-25T04:12:02;11.03;;;1.70;;
66521;SDS011;53349;53.538;8.584;2023-04-25T04:14:28;8.45;;;1.48;;
66521;SDS011;53349;53.538;8.584;2023-04-25T04:16:55;11.37;;;1.80;;
66521;SDS011;53349;53.538;8.584;2023-04-25T04:19:20;9.48;;;1.48;;
66521;SDS011;53349;53.538;8.584;2023-04-25T04:21:46;5.10;;;1.50;;
66521;SDS011;53349;53.538;8.584;2023-04-25T04:24:11;13.80;;;2.00;;
66521;SDS011;53349;53.538;8.584;2023-04-25T04:26:37;9.90;;;2.25;;
66521;SDS011;53349;53.538;8.584;2023-04-25T04:29:03;9.70;;;1.70;;
66521;SDS011;53349;53.538;8.584;2023-04-25T04:31:28;7.67;;;1.30;;
66521;SDS011;53349;53.538;8.584;2023-04-25T04:33:55;11.98;;;1.83;;
66521;SDS011;53349;53.538;8.584;2023-04-25T04:36:22;8.27;;;1.30;;
66521;SDS011;53349;53.538;8.584;2023-04-25T04:38:48;9.10;;;1.40;;
66521;SDS011;53349;53.538;8.584;2023-04-25T04:41:15;9.55;;;1.70;;
66521;SDS011;53349;53.538;8.584;2023-04-25T04:43:41;7.33;;;1.30;;
66521;SDS011;53349;53.538;8.584;2023-04-25T04:46:06;8.52;;;1.48;;
66521;SDS011;53349;53.538;8.584;2023-04-25T04:48:32;8.95;;;1.73;;
66521;SDS011;53349;53.538;8.584;2023-04-25T04:50:58;10.47;;;1.70;;
66521;SDS011;53349;53.538;8.584;2023-04-25T04:53:23;10.35;;;1.65;;
66521;SDS011;53349;53.538;8.584;2023-04-25T04:55:49;11.07;;;2.07;;
66521;SDS011;53349;53.538;8.584;2023-04-25T04:58:14;11.00;;;1.90;;
66521;SDS011;53349;53.538;8.584;2023-04-25T05:00:40;10.83;;;2.27;;
66521;SDS011;53349;53.538;8.584;2023-04-25T05:03:06;9.65;;;1.90;;
66521;SDS011;53349;53.538;8.584;2023-04-25T05:05:32;12.20;;;2.00;;
66521;SDS011;53349;53.538;8.584;2023-04-25T05:07:58;10.40;;;1.92;;
66521;SDS011;53349;53.538;8.584;2023-04-25T05:10:23;7.57;;;1.73;;
66521;SDS011;53349;53.538;8.584;2023-04-25T05:12:49;6.97;;;1.63;;
66521;SDS011;53349;53.538;8.584;2023-04-25T05:15:19;9.23;;;1.58;;
66521;SDS011;53349;53.538;8.584;2023-04-25T05:17:44;12.95;;;1.58;;
66521;SDS011;53349;53.538;8.584;2023-04-25T05:20:10;11.83;;;1.70;;
66521;SDS011;53349;53.538;8.584;2023-04-25T05:22:36;11.10;;;1.80;;
66521;SDS011;53349;53.538;8.584;2023-04-25T05:25:02;8.60;;;2.07;;
66521;SDS011;53349;53.538;8.584;2023-04-25T05:27:27;8.20;;;1.43;;
66521;SDS011;53349;53.538;8.584;2023-04-25T05:29:53;8.40;;;1.30;;
66521;SDS011;53349;53.538;8.584;2023-04-25T05:32:18;10.43;;;1.43;;
66521;SDS011;53349;53.538;8.584;2023-04-25T05:34:44;10.30;;;1.90;;
66521;SDS011;53349;53.538;8.584;2023-04-25T05:37:09;8.53;;;1.33;;
66521;SDS011;53349;53.538;8.584;2023-04-25T05:39:34;8.40;;;1.05;;
66521;SDS011;53349;53.538;8.584;2023-04-25T05:42:00;9.90;;;1.50;;
66521;SDS011;53349;53.538;8.584;2023-04-25T05:44:25;7.53;;;1.30;;
66521;SDS011;53349;53.538;8.584;2023-04-25T05:46:54;6.30;;;1.20;;
66521;SDS011;53349;53.538;8.584;2023-04-25T05:49:24;6.68;;;1.45;;
66521;SDS011;53349;53.538;8.584;2023-04-25T05:51:51;4.65;;;1.42;;
66521;SDS011;53349;53.538;8.584;2023-04-25T05:54:16;12.00;;;1.30;;
66521;SDS011;53349;53.538;8.584;2023-04-25T05:56:44;6.22;;;1.50;;
66521;SDS011;53349;53.538;8.584;2023-04-25T05:59:10;9.68;;;1.60;;
66521;SDS011;53349;53.538;8.584;2023-04-25T06:01:36;7.75;;;1.50;;
66521;SDS011;53349;53.538;8.584;2023-04-25T06:04:04;10.88;;;1.50;;
66521;SDS011;53349;53.538;8.584;2023-04-25T06:06:29;6.45;;;1.90;;
66521;SDS011;53349;53.538;8.584;2023-04-25T06:08:55;9.97;;;1.30;;
66521;SDS011;53349;53.538;8.584;2023-04-25T06:11:20;10.53;;;1.83;;
66521;SDS011;53349;53.538;8.584;2023-04-25T06:13:46;12.32;;;1.83;;
66521;SDS011;53349;53.538;8.584;2023-04-25T06:16:11;7.70;;;1.57;;
66521;SDS011;53349;53.538;8.584;2023-04-25T06:18:37;10.63;;;1.90;;
66521;SDS011;53349;53.538;8.584;2023-04-25T06:21:02;9.40;;;2.10;;
66521;SDS011;53349;53.538;8.584;2023-04-25T06:23:28;10.80;;;1.20;;
66521;SDS011;53349;53.538;8.584;2023-04-25T06:25:53;8.27;;;1.00;;
66521;SDS011;53349;53.538;8.584;2023-04-25T06:28:19;5.80;;;1.27;;
66521;SDS011;53349;53.538;8.584;2023-04-25T06:30:45;8.87;;;1.37;;
66521;SDS011;53349;53.538;8.584;2023-04-25T06:33:10;9.23;;;1.30;;
66521;SDS011;53349;53.538;8.584;2023-04-25T06:35:37;8.23;;;1.30;;
66521;SDS011;53349;53.538;8.584;2023-04-25T06:38:04;7.40;;;1.20;;
66521;SDS011;53349;53.538;8.584;2023-04-25T06:40:29;8.85;;;1.02;;
66521;SDS011;53349;53.538;8.584;2023-04-25T06:42:55;7.60;;;1.40;;
66521;SDS011;53349;53.538;8.584;2023-04-25T06:45:21;4.38;;;0.98;;
66521;SDS011;53349;53.538;8.584;2023-04-25T06:47:47;6.85;;;1.00;;
66521;SDS011;53349;53.538;8.584;2023-04-25T06:50:13;3.07;;;0.70;;
66521;SDS011;53349;53.538;8.584;2023-04-25T06:52:38;7.13;;;1.10;;
66521;SDS011;53349;53.538;8.584;2023-04-25T06:55:04;13.48;;;1.40;;
66521;SDS011;53349;53.538;8.584;2023-04-25T06:57:30;8.30;;;1.05;;
66521;SDS011;53349;53.538;8.584;2023-04-25T07:00:02;7.30;;;1.10;;
66521;SDS011;53349;53.538;8.584;2023-04-25T07:02:30;8.10;;;1.42;;
66521;SDS011;53349;53.538;8.584;2023-04-25T07:04:58;5.85;;;1.65;;
66521;SDS011;53349;53.538;8.584;2023-04-25T07:07:24;6.65;;;1.50;;
66521;SDS011;53349;53.538;8.584;2023-04-25T07:09:50;9.23;;;1.27;;
66521;SDS011;53349;53.538;8.584;2023-04-25T07:12:17;11.23;;;1.40;;
66521;SDS011;53349;53.538;8.584;2023-04-25T07:14:42;8.18;;;1.50;;
66521;SDS011;53349;53.538;8.584;2023-04-25T07:17:07;8.00;;;1.43;;
66521;SDS011;53349;53.538;8.584;2023-04-25T07:19:33;8.88;;;1.05;;
66521;SDS011;53349;53.538;8.584;2023-04-25T07:22:00;7.67;;;1.43;;
66521;SDS011;53349;53.538;8.584;2023-04-25T07:24:25;9.02;;;1.30;;
66521;SDS011;53349;53.538;8.584;2023-04-25T07:26:52;7.50;;;1.43;;
66521;SDS011;53349;53.538;8.584;2023-04-25T07:29:17;5.95;;;0.98;;
66521;SDS011;53349;53.538;8.584;2023-04-25T07:31:42;8.53;;;1.73;;
66521;SDS011;53349;53.538;8.584;2023-04-25T07:34:10;7.13;;;1.67;;
66521;SDS011;53349;53.538;8.584;2023-04-25T07:36:35;6.40;;;1.07;;
66521;SDS011;53349;53.538;8.584;2023-04-25T07:39:01;7.70;;;1.10;;
66521;SDS011;53349;53.538;8.584;2023-04-25T07:41:26;5.67;;;1.00;;
66521;SDS011;53349;53.538;8.584;2023-04-25T07:43:51;8.17;;;1.20;;
66521;SDS011;53349;53.538;8.584;2023-04-25T07:46:17;7.25;;;1.13;;
66521;SDS011;53349;53.538;8.584;2023-04-25T07:48:42;7.37;;;1.10;;
66521;SDS011;53349;53.538;8.584;2023-04-25T07:51:08;10.23;;;1.10;;
66521;SDS011;53349;53.538;8.584;2023-04-25T07:53:35;7.55;;;1.27;;
66521;SDS011;53349;53.538;8.584;2023-04-25T07:56:00;4.13;;;0.80;;
66521;SDS011;53349;53.538;8.584;2023-04-25T07:58:25;7.97;;;1.20;;
66521;SDS011;53349;53.538;8.584;2023-04-25T08:00:51;11.40;;;1.27;;
66521;SDS011;53349;53.538;8.584;2023-04-25T08:03:17;6.10;;;1.23;;
66521;SDS011;53349;53.538;8.584;2023-04-25T08:05:43;6.33;;;1.27;;
66521;SDS011;53349;53.538;8.584;2023-04-25T08:08:08;7.20;;;1.37;;
66521;SDS011;53349;53.538;8.584;2023-04-25T08:10:34;6.03;;;1.03;;
66521;SDS011;53349;53.538;8.584;2023-04-25T08:12:59;6.10;;;1.10;;
66521;SDS011;53349;53.538;8.584;2023-04-25T08:15:26;8.35;;;1.10;;
66521;SDS011;53349;53.538;8.584;2023-04-25T08:17:51;9.37;;;1.17;;
66521;SDS011;53349;53.538;8.584;2023-04-25T08:20:17;8.55;;;1.08;;
66521;SDS011;53349;53.538;8.584;2023-04-25T08:22:43;7.43;;;1.00;;
66521;SDS011;53349;53.538;8.584;2023-04-25T08:25:09;5.80;;;1.10;;
66521;SDS011;53349;53.538;8.584;2023-04-25T08:27:34;8.20;;;1.20;;
66521;SDS011;53349;53.538;8.584;2023-04-25T08:30:01;8.65;;;0.93;;
66521;SDS011;53349;53.538;8.584;2023-04-25T08:32:27;7.60;;;1.20;;
66521;SDS011;53349;53.538;8.584;2023-04-25T08:34:54;7.97;;;1.20;;
66521;SDS011;53349;53.538;8.584;2023-04-25T08:37:19;6.88;;;1.30;;
66521;SDS011;53349;53.538;8.584;2023-04-25T08:39:47;6.28;;;0.90;;
66521;SDS011;53349;53.538;8.584;2023-04-25T08:42:14;7.45;;;1.40;;
66521;SDS011;53349;53.538;8.584;2023-04-25T08:44:41;8.30;;;1.00;;
66521;SDS011;53349;53.538;8.584;2023-04-25T08:47:09;4.23;;;0.80;;
66521;SDS011;53349;53.538;8.584;2023-04-25T08:49:35;7.97;;;1.17;;
66521;SDS011;53349;53.538;8.584;2023-04-25T08:52:03;7.32;;;1.10;;
66521;SDS011;53349;53.538;8.584;2023-04-25T08:54:32;7.95;;;1.15;;
66521;SDS011;53349;53.538;8.584;2023-04-25T08:57:04;5.18;;;1.20;;
66521;SDS011;53349;53.538;8.584;2023-04-25T08:59:31;9.32;;;0.98;;
66521;SDS011;53349;53.538;8.584;2023-04-25T09:01:57;6.15;;;1.00;;
66521;SDS011;53349;53.538;8.584;2023-04-25T09:04:25;5.97;;;0.70;;
66521;SDS011;53349;53.538;8.584;2023-04-25T09:06:53;6.13;;;0.82;;
66521;SDS011;53349;53.538;8.584;2023-04-25T09:09:21;8.63;;;1.13;;
66521;SDS011;53349;53.538;8.584;2023-04-25T09:11:47;7.43;;;1.00;;
66521;SDS011;53349;53.538;8.584;2023-04-25T09:14:14;6.40;;;0.98;;
66521;SDS011;53349;53.538;8.584;2023-04-25T09:19:28;6.47;;;1.13;;
66521;SDS011;53349;53.538;8.584;2023-04-25T09:21:56;7.25;;;1.30;;
66521;SDS011;53349;53.538;8.584;2023-04-25T09:24:42;8.40;;;1.10;;
66521;SDS011;53349;53.538;8.584;2023-04-25T09:27:10;7.35;;;1.10;;
66521;SDS011;53349;53.538;8.584;2023-04-25T09:29:43;6.28;;;1.00;;
66521;SDS011;53349;53.538;8.584;2023-04-25T09:32:15;5.57;;;1.30;;
66521;SDS011;53349;53.538;8.584;2023-04-25T09:34:49;9.30;;;1.10;;
66521;SDS011;53349;53.538;8.584;2023-04-25T09:39:54;9.55;;;1.35;;
66521;SDS011;53349;53.538;8.584;2023-04-25T09:42:25;5.13;;;1.00;;
66521;SDS011;53349;53.538;8.584;2023-04-25T09:44:53;5.33;;;0.97;;
66521;SDS011;53349;53.538;8.584;2023-04-25T09:47:20;3.55;;;0.80;;
66521;SDS011;53349;53.538;8.584;2023-04-25T09:49:45;7.38;;;0.88;;
66521;SDS011;53349;53.538;8.584;2023-04-25T09:52:15;6.63;;;1.07;;
66521;SDS011;53349;53.538;8.584;2023-04-25T09:54:48;7.38;;;0.93;;
66521;SDS011;53349;53.538;8.584;2023-04-25T09:57:16;7.95;;;1.13;;
66521;SDS011;53349;53.538;8.584;2023-04-25T09:59:50;4.60;;;1.10;;
66521;SDS011;53349;53.538;8.584;2023-04-25T10:02:20;8.37;;;0.90;;
66521;SDS011;53349;53.538;8.584;2023-04-25T10:04:50;5.43;;;1.15;;
66521;SDS011;53349;53.538;8.584;2023-04-25T10:07:18;5.50;;;1.10;;
66521;SDS011;53349;53.538;8.584;2023-04-25T10:09:48;4.88;;;1.13;;
66521;SDS011;53349;53.538;8.584;2023-04-25T10:12:14;5.25;;;1.00;;
66521;SDS011;53349;53.538;8.584;2023-04-25T10:14:40;4.63;;;0.73;;
66521;SDS011;53349;53.538;8.584;2023-04-25T10:17:07;5.72;;;0.98;;
66521;SDS011;53349;53.538;8.584;2023-04-25T10:19:35;5.20;;;1.10;;
66521;SDS011;53349;53.538;8.584;2023-04-25T10:22:06;5.05;;;1.00;;
66521;SDS011;53349;53.538;8.584;2023-04-25T10:24:35;4.22;;;0.82;;
66521;SDS011;53349;53.538;8.584;2023-04-25T10:27:01;4.22;;;0.95;;
66521;SDS011;53349;53.538;8.584;2023-04-25T10:29:27;7.68;;;1.25;;
66521;SDS011;53349;53.538;8.584;2023-04-25T10:31:54;5.88;;;0.88;;
66521;SDS011;53349;53.538;8.584;2023-04-25T10:34:19;6.93;;;1.05;;
66521;SDS011;53349;53.538;8.584;2023-04-25T10:36:50;6.63;;;1.33;;
66521;SDS011;53349;53.538;8.584;2023-04-25T10:39:21;7.60;;;0.98;;
66521;SDS011;53349;53.538;8.584;2023-04-25T10:41:57;8.23;;;1.10;;
66521;SDS011;53349;53.538;8.584;2023-04-25T10:44:28;4.20;;;0.90;;
66521;SDS011;53349;53.538;8.584;2023-04-25T10:46:56;5.55;;;1.20;;
66521;SDS011;53349;53.538;8.584;2023-04-25T10:49:35;4.03;;;0.70;;
66521;SDS011;53349;53.538;8.584;2023-04-25T10:52:16;6.13;;;0.80;;
66521;SDS011;53349;53.538;8.584;2023-04-25T10:54:54;8.10;;;0.90;;
66521;SDS011;53349;53.538;8.584;2023-04-25T10:57:31;3.50;;;0.70;;
66521;SDS011;53349;53.538;8.584;2023-04-25T11:00:17;6.00;;;1.23;;
66521;SDS011;53349;53.538;8.584;2023-04-25T11:05:23;7.07;;;1.02;;
66521;SDS011;53349;53.538;8.584;2023-04-25T11:07:57;6.82;;;1.02;;
66521;SDS011;53349;53.538;8.584;2023-04-25T11:10:30;5.97;;;1.00;;
66521;SDS011;53349;53.538;8.584;2023-04-25T11:12:57;6.00;;;1.10;;
66521;SDS011;53349;53.538;8.584;2023-04-25T11:15:23;4.67;;;1.13;;
66521;SDS011;53349;53.538;8.584;2023-04-25T11:17:50;6.05;;;1.10;;
66521;SDS011;53349;53.538;8.584;2023-04-25T11:20:16;8.50;;;1.15;;
66521;SDS011;53349;53.538;8.584;2023-04-25T11:22:43;4.27;;;1.20;;
66521;SDS011;53349;53.538;8.584;2023-04-25T11:25:10;5.45;;;0.82;;
66521;SDS011;53349;53.538;8.584;2023-04-25T11:27:52;6.60;;;1.00;;
66521;SDS011;53349;53.538;8.584;2023-04-25T11:30:23;5.70;;;0.90;;
66521;SDS011;53349;53.538;8.584;2023-04-25T11:32:50;6.10;;;1.33;;
66521;SDS011;53349;53.538;8.584;2023-04-25T11:35:16;7.53;;;1.13;;
66521;SDS011;53349;53.538;8.584;2023-04-25T11:37:43;5.50;;;0.82;;
66521;SDS011;53349;53.538;8.584;2023-04-25T11:40:11;8.65;;;1.10;;
66521;SDS011;53349;53.538;8.584;2023-04-25T11:42:43;9.07;;;1.10;;
66521;SDS011;53349;53.538;8.584;2023-04-25T11:45:09;5.93;;;1.03;;
66521;SDS011;53349;53.538;8.584;2023-04-25T11:47:35;5.85;;;0.85;;
66521;SDS011;53349;53.538;8.584;2023-04-25T11:50:01;3.17;;;0.60;;
66521;SDS011;53349;53.538;8.584;2023-04-25T11:52:47;4.00;;;0.77;;
66521;SDS011;53349;53.538;8.584;2023-04-25T11:55:14;3.45;;;0.70;;
66521;SDS011;53349;53.538;8.584;2023-04-25T11:57:41;4.95;;;0.70;;
66521;SDS011;53349;53.538;8.584;2023-04-25T12:02:47;3.85;;;0.65;;
66521;SDS011;53349;53.538;8.584;2023-04-25T12:05:16;6.35;;;0.70;;
66521;SDS011;53349;53.538;8.584;2023-04-25T12:07:42;3.43;;;0.60;;
66521;SDS011;53349;53.538;8.584;2023-04-25T12:10:11;4.10;;;0.65;;
66521;SDS011;53349;53.538;8.584;2023-04-25T12:12:41;6.07;;;1.00;;
66521;SDS011;53349;53.538;8.584;2023-04-25T12:15:17;6.50;;;0.90;;
66521;SDS011;53349;53.538;8.584;2023-04-25T12:17:49;9.27;;;1.45;;
66521;SDS011;53349;53.538;8.584;2023-04-25T12:20:18;6.53;;;1.08;;
66521;SDS011;53349;53.538;8.584;2023-04-25T12:22:45;4.70;;;1.10;;
66521;SDS011;53349;53.538;8.584;2023-04-25T12:25:12;4.85;;;1.10;;
66521;SDS011;53349;53.538;8.584;2023-04-25T12:28:19;6.23;;;0.90;;
66521;SDS011;53349;53.538;8.584;2023-04-25T12:31:00;4.63;;;0.75;;
66521;SDS011;53349;53.538;8.584;2023-04-25T12:33:32;7.40;;;1.17;;
66521;SDS011;53349;53.538;8.584;2023-04-25T12:36:15;4.65;;;0.75;;
66521;SDS011;53349;53.538;8.584;2023-04-25T12:38:41;5.40;;;1.20;;
66521;SDS011;53349;53.538;8.584;2023-04-25T12:41:07;6.30;;;1.00;;
66521;SDS011;53349;53.538;8.584;2023-04-25T12:43:35;7.60;;;1.10;;
66521;SDS011;53349;53.538;8.584;2023-04-25T12:46:12;7.90;;;1.25;;
66521;SDS011;53349;53.538;8.584;2023-04-25T12:48:39;7.10;;;1.08;;
66521;SDS011;53349;53.538;8.584;2023-04-25T12:51:05;6.72;;;1.33;;
66521;SDS011;53349;53.538;8.584;2023-04-25T12:53:30;6.70;;;1.20;;
66521;SDS011;53349;53.538;8.584;2023-04-25T12:55:56;6.82;;;1.35;;
66521;SDS011;53349;53.538;8.584;2023-04-25T12:58:21;8.13;;;1.60;;
66521;SDS011;53349;53.538;8.584;2023-04-25T13:00:47;7.57;;;1.17;;
66521;SDS011;53349;53.538;8.584;2023-04-25T13:03:12;6.03;;;0.87;;
66521;SDS011;53349;53.538;8.584;2023-04-25T13:05:38;8.57;;;1.60;;
66521;SDS011;53349;53.538;8.584;2023-04-25T13:08:05;5.45;;;1.10;;
66521;SDS011;53349;53.538;8.584;2023-04-25T13:10:31;8.37;;;1.23;;
66521;SDS011;53349;53.538;8.584;2023-04-25T13:13:18;5.00;;;0.90;;
66521;SDS011;53349;53.538;8.584;2023-04-25T13:15:45;8.10;;;1.35;;
66521;SDS011;53349;53.538;8.584;2023-04-25T13:18:14;7.70;;;1.20;;
66521;SDS011;53349;53.538;8.584;2023-04-25T13:20:40;6.57;;;1.70;;
66521;SDS011;53349;53.538;8.584;2023-04-25T13:23:06;7.70;;;1.10;;
66521;SDS011;53349;53.538;8.584;2023-04-25T13:25:34;8.77;;;1.20;;
66521;SDS011;53349;53.538;8.584;2023-04-25T13:28:01;6.60;;;1.10;;
66521;SDS011;53349;53.538;8.584;2023-04-25T13:30:27;4.30;;;1.00;;
66521;SDS011;53349;53.538;8.584;2023-04-25T13:32:53;10.55;;;1.00;;
66521;SDS011;53349;53.538;8.584;2023-04-25T13:35:19;6.55;;;1.13;;
66521;SDS011;53349;53.538;8.584;2023-04-25T13:37:44;10.27;;;1.20;;
66521;SDS011;53349;53.538;8.584;2023-04-25T13:40:10;5.43;;;1.30;;
66521;SDS011;53349;53.538;8.584;2023-04-25T13:42:37;5.90;;;0.90;;
66521;SDS011;53349;53.538;8.584;2023-04-25T13:45:04;8.23;;;1.00;;
66521;SDS011;53349;53.538;8.584;2023-04-25T13:47:30;7.90;;;1.50;;
66521;SDS011;53349;53.538;8.584;2023-04-25T13:49:56;8.73;;;1.20;;
66521;SDS011;53349;53.538;8.584;2023-04-25T13:52:24;5.53;;;0.90;;
66521;SDS011;53349;53.538;8.584;2023-04-25T13:54:51;8.75;;;1.10;;
66521;SDS011;53349;53.538;8.584;2023-04-25T13:57:17;6.53;;;1.02;;
66521;SDS011;53349;53.538;8.584;2023-04-25T13:59:47;8.77;;;1.10;;
66521;SDS011;53349;53.538;8.584;2023-04-25T14:02:15;5.47;;;1.10;;
66521;SDS011;53349;53.538;8.584;2023-04-25T14:04:41;6.60;;;1.00;;
66521;SDS011;53349;53.538;8.584;2023-04-25T14:07:08;8.73;;;1.20;;
66521;SDS011;53349;53.538;8.584;2023-04-25T14:09:34;5.85;;;0.95;;
66521;SDS011;53349;53.538;8.584;2023-04-25T14:12:01;7.38;;;1.00;;
66521;SDS011;53349;53.538;8.584;2023-04-25T14:14:27;5.38;;;1.10;;
66521;SDS011;53349;53.538;8.584;2023-04-25T14:16:53;4.53;;;1.03;;
66521;SDS011;53349;53.538;8.584;2023-04-25T14:19:18;7.68;;;1.20;;
66521;SDS011;53349;53.538;8.584;2023-04-25T14:21:44;10.23;;;1.30;;
66521;SDS011;53349;53.538;8.584;2023-04-25T14:24:10;5.57;;;0.80;;
66521;SDS011;53349;53.538;8.584;2023-04-25T14:26:37;5.20;;;1.17;;
66521;SDS011;53349;53.538;8.584;2023-04-25T14:29:08;6.57;;;1.20;;
66521;SDS011;53349;53.538;8.584;2023-04-25T14:31:35;9.85;;;1.35;;
66521;SDS011;53349;53.538;8.584;2023-04-25T14:34:01;6.53;;;1.25;;
66521;SDS011;53349;53.538;8.584;2023-04-25T14:36:29;7.20;;;1.23;;
66521;SDS011;53349;53.538;8.584;2023-04-25T14:38:58;5.77;;;0.80;;
66521;SDS011;53349;53.538;8.584;2023-04-25T14:41:24;6.32;;;1.20;;
66521;SDS011;53349;53.538;8.584;2023-04-25T14:43:54;4.90;;;0.93;;
66521;SDS011;53349;53.538;8.584;2023-04-25T14:46:19;5.37;;;0.80;;
66521;SDS011;53349;53.538;8.584;2023-04-25T14:48:45;5.93;;;0.80;;
66521;SDS011;53349;53.538;8.584;2023-04-25T14:51:14;5.43;;;0.98;;
66521;SDS011;53349;53.538;8.584;2023-04-25T14:53:39;6.87;;;1.40;;